createdAt,value
2019-04-04T00:00:14.313Z,31.62
2019-04-04T00:02:42.564Z,31.48
2019-04-04T00:05:09.361Z,32.53
2019-04-04T00:07:36.476Z,31.57
2019-04-04T00:10:05.163Z,31.40
2019-04-04T00:12:32.452Z,30.23
2019-04-04T00:14:59.173Z,27.80
2019-04-04T00:17:25.998Z,28.92
2019-04-04T00:19:52.715Z,26.65
2019-04-04T00:22:19.504Z,26.42
2019-04-04T00:24:46.259Z,27.20
2019-04-04T00:27:13.681Z,26.00
2019-04-04T00:29:40.800Z,27.37
2019-04-04T00:32:07.546Z,28.80
2019-04-04T00:34:34.346Z,30.17
2019-04-04T00:37:04.368Z,29.85
2019-04-04T00:39:29.988Z,31.35
2019-04-04T00:41:56.802Z,29.37
2019-04-04T00:44:23.747Z,31.52
2019-04-04T00:46:50.533Z,32.20
2019-04-04T00:49:17.256Z,30.40
2019-04-04T00:51:43.990Z,30.52
2019-04-04T00:54:12.070Z,32.53
2019-04-04T00:56:39.477Z,31.97
2019-04-04T00:59:06.367Z,29.98
2019-04-04T01:01:33.100Z,28.52
2019-04-04T01:04:01.020Z,30.40
2019-04-04T01:06:29.451Z,29.42
2019-04-04T01:08:56.239Z,27.95
2019-04-04T01:11:23.153Z,26.82
2019-04-04T01:13:50.204Z,28.23
2019-04-04T01:16:16.978Z,27.98
2019-04-04T01:18:43.710Z,28.38
2019-04-04T01:21:10.493Z,29.27
2019-04-04T01:23:37.551Z,28.90
2019-04-04T01:26:04.493Z,28.15
2019-04-04T01:28:31.222Z,27.87
2019-04-04T01:30:58.166Z,28.50
2019-04-04T01:33:24.961Z,27.82
2019-04-04T01:35:53.723Z,27.48
2019-04-04T01:38:20.411Z,27.60
2019-04-04T01:40:47.458Z,28.02
2019-04-04T01:43:14.169Z,27.62
2019-04-04T01:45:43.743Z,27.20
2019-04-04T01:48:09.564Z,28.27
2019-04-04T01:50:36.537Z,27.25
2019-04-04T01:53:03.315Z,26.00
2019-04-04T01:55:30.260Z,26.97
2019-04-04T01:57:57.110Z,27.25
2019-04-04T02:00:24.077Z,26.68
2019-04-04T02:02:51.898Z,25.12
2019-04-04T02:05:19.170Z,28.90
2019-04-04T02:07:46.009Z,29.60
2019-04-04T02:10:12.906Z,27.62
2019-04-04T02:12:39.661Z,27.67
2019-04-04T02:15:07.696Z,27.45
2019-04-04T02:17:34.436Z,26.57
2019-04-04T02:20:01.392Z,27.00
2019-04-04T02:22:30.625Z,26.68
2019-04-04T02:24:56.925Z,27.90
2019-04-04T02:27:23.767Z,27.20
2019-04-04T02:29:50.660Z,27.58
2019-04-04T02:32:19.317Z,27.73
2019-04-04T02:34:46.248Z,38.58
2019-04-04T02:37:13.054Z,31.07
2019-04-04T02:39:39.790Z,27.30
2019-04-04T02:42:06.617Z,25.80
2019-04-04T02:44:33.396Z,27.40
2019-04-04T02:47:00.175Z,26.65
2019-04-04T02:49:29.245Z,26.12
2019-04-04T02:51:55.858Z,25.08
2019-04-04T02:54:24.629Z,27.15
2019-04-04T02:56:51.216Z,23.85
2019-04-04T02:59:21.770Z,26.62
2019-04-04T03:01:48.842Z,25.70
2019-04-04T03:04:15.631Z,26.40
2019-04-04T03:06:42.378Z,25.60
2019-04-04T03:09:10.393Z,26.82
2019-04-04T03:11:37.480Z,25.60
2019-04-04T03:14:04.766Z,26.27
2019-04-04T03:16:31.688Z,25.90
2019-04-04T03:18:58.463Z,26.90
2019-04-04T03:21:25.721Z,25.35
2019-04-04T03:23:52.496Z,26.82
2019-04-04T03:26:20.597Z,26.27
2019-04-04T03:28:47.523Z,25.75
2019-04-04T03:31:14.573Z,26.30
2019-04-04T03:33:41.373Z,27.27
2019-04-04T03:36:08.190Z,27.55
2019-04-04T03:38:35.171Z,27.13
2019-04-04T03:41:02.069Z,26.68
2019-04-04T03:43:28.835Z,26.52
2019-04-04T03:46:00.154Z,24.52
2019-04-04T03:48:24.304Z,26.68
2019-04-04T03:50:51.394Z,25.62
2019-04-04T03:53:20.094Z,26.97
2019-04-04T03:55:46.808Z,27.70
2019-04-04T03:58:13.582Z,27.93
2019-04-04T04:00:40.715Z,26.57
2019-04-04T04:03:07.593Z,27.70
2019-04-04T04:05:36.639Z,26.77
2019-04-04T04:08:03.321Z,27.25
2019-04-04T04:10:33.434Z,27.30
2019-04-04T04:12:59.182Z,28.40
2019-04-04T04:15:29.042Z,27.80
2019-04-04T04:17:55.222Z,27.20
2019-04-04T04:20:22.772Z,27.55
2019-04-04T04:22:50.923Z,26.85
2019-04-04T04:25:18.221Z,26.30
2019-04-04T04:27:48.499Z,27.65
2019-04-04T04:30:13.839Z,28.32
2019-04-04T04:32:40.629Z,27.73
2019-04-04T04:35:09.138Z,28.12
2019-04-04T04:37:36.163Z,28.67
2019-04-04T04:40:04.151Z,27.95
2019-04-04T04:42:30.882Z,28.85
2019-04-04T04:44:57.863Z,27.65
2019-04-04T04:47:24.603Z,28.12
2019-04-04T04:49:51.346Z,27.55
2019-04-04T04:52:18.443Z,28.25
2019-04-04T04:54:45.295Z,26.80
2019-04-04T04:57:28.153Z,27.15
2019-04-04T04:59:40.757Z,26.95
2019-04-04T05:02:07.650Z,28.60
2019-04-04T05:04:34.425Z,28.65
2019-04-04T05:07:01.212Z,27.85
2019-04-04T05:09:27.923Z,27.25
2019-04-04T05:11:54.827Z,26.97
2019-04-04T05:14:21.677Z,25.90
2019-04-04T05:16:48.451Z,26.68
2019-04-04T05:19:15.289Z,26.62
2019-04-04T05:21:42.279Z,27.40
2019-04-04T05:24:09.060Z,26.50
2019-04-04T05:26:38.516Z,25.52
2019-04-04T05:29:04.608Z,25.72
2019-04-04T05:31:31.363Z,25.57
2019-04-04T05:33:59.173Z,26.77
2019-04-04T05:36:26.478Z,26.52
2019-04-04T05:38:53.249Z,26.73
2019-04-04T05:41:20.413Z,26.33
2019-04-04T05:43:47.167Z,25.92
2019-04-04T05:46:13.918Z,27.35
2019-04-04T05:48:40.775Z,24.95
2019-04-04T05:51:07.753Z,26.60
2019-04-04T05:53:35.429Z,27.50
2019-04-04T05:56:06.151Z,27.07
2019-04-04T05:58:31.845Z,26.02
2019-04-04T06:01:01.504Z,26.40
2019-04-04T06:03:27.781Z,27.22
2019-04-04T06:05:54.720Z,25.57
2019-04-04T06:08:21.513Z,25.70
2019-04-04T06:10:50.089Z,25.52
2019-04-04T06:13:17.006Z,25.97
2019-04-04T06:15:43.969Z,25.25
2019-04-04T06:18:11.812Z,25.43
2019-04-04T06:20:38.945Z,26.60
2019-04-04T06:23:05.774Z,25.85
2019-04-04T06:25:35.658Z,25.57
2019-04-04T06:28:01.316Z,26.02
2019-04-04T06:30:28.251Z,25.40
2019-04-04T06:32:54.971Z,25.72
2019-04-04T06:35:21.754Z,25.88
2019-04-04T06:37:51.338Z,26.17
2019-04-04T06:40:18.252Z,25.82
2019-04-04T06:42:45.195Z,25.62
2019-04-04T06:45:15.493Z,24.65
2019-04-04T06:47:42.953Z,26.30
2019-04-04T06:50:09.673Z,25.88
2019-04-04T06:52:36.814Z,24.18
2019-04-04T06:55:05.443Z,25.55
2019-04-04T06:57:32.205Z,25.30
2019-04-04T06:59:59.021Z,26.48
2019-04-04T07:02:25.809Z,24.72
2019-04-04T07:04:53.435Z,26.70
2019-04-04T07:07:20.322Z,25.85
2019-04-04T07:09:48.238Z,24.90
2019-04-04T07:12:24.424Z,25.20
2019-04-04T07:14:45.885Z,24.77
2019-04-04T07:17:16.176Z,24.85
2019-04-04T07:19:43.996Z,25.32
2019-04-04T07:22:10.907Z,24.70
2019-04-04T07:24:38.459Z,24.27
2019-04-04T07:27:05.270Z,24.18
2019-04-04T07:29:32.116Z,22.95
2019-04-04T07:31:59.749Z,23.75
2019-04-04T07:34:26.560Z,22.30
2019-04-04T07:36:53.470Z,22.87
2019-04-04T07:39:20.298Z,23.05
2019-04-04T07:41:47.286Z,23.60
2019-04-04T07:44:14.113Z,23.60
2019-04-04T07:46:41.931Z,23.42
2019-04-04T07:49:09.580Z,23.55
2019-04-04T07:51:36.345Z,23.25
2019-04-04T07:54:03.121Z,22.65
2019-04-04T07:56:29.972Z,23.07
2019-04-04T07:58:56.825Z,22.02
2019-04-04T08:01:23.658Z,23.77
2019-04-04T08:03:50.417Z,22.40
2019-04-04T08:06:17.238Z,23.47
2019-04-04T08:08:44.114Z,23.02
2019-04-04T08:11:13.229Z,23.02
2019-04-04T08:13:39.675Z,22.70
2019-04-04T08:16:06.902Z,21.62
2019-04-04T08:18:35.184Z,20.80
2019-04-04T08:21:02.023Z,21.10
2019-04-04T08:23:28.819Z,21.25
2019-04-04T08:25:55.629Z,20.17
2019-04-04T08:28:22.531Z,19.65
2019-04-04T08:30:49.435Z,19.55
2019-04-04T08:33:16.227Z,19.62
2019-04-04T08:35:43.335Z,18.10
2019-04-04T08:38:10.442Z,19.37
2019-04-04T08:40:37.386Z,18.30
2019-04-04T08:43:04.175Z,18.10
2019-04-04T08:45:30.979Z,20.57
2019-04-04T08:47:57.745Z,19.42
2019-04-04T08:50:24.492Z,18.35
2019-04-04T08:52:51.451Z,18.65
2019-04-04T08:55:18.313Z,17.42
2019-04-04T08:57:45.208Z,18.15
2019-04-04T09:00:12.189Z,17.02
2019-04-04T09:02:39.000Z,16.82
2019-04-04T09:05:11.782Z,17.42
2019-04-04T09:07:34.760Z,20.10
2019-04-04T09:10:02.202Z,19.50
2019-04-04T09:12:28.966Z,18.65
2019-04-04T09:14:56.143Z,17.48
2019-04-04T09:17:23.110Z,16.62
2019-04-04T09:19:49.923Z,18.55
2019-04-04T09:22:16.935Z,17.67
2019-04-04T09:24:43.681Z,18.65
2019-04-04T09:27:10.450Z,17.35
2019-04-04T09:29:37.338Z,25.25
2019-04-04T09:32:04.171Z,42.33
2019-04-04T09:34:30.932Z,21.82
2019-04-04T09:36:57.710Z,19.00
2019-04-04T09:39:24.727Z,18.67
2019-04-04T09:41:51.467Z,18.65
2019-04-04T09:44:18.250Z,19.10
2019-04-04T09:46:45.914Z,17.27
2019-04-04T09:49:13.085Z,17.30
2019-04-04T09:51:40.128Z,16.82
2019-04-04T09:54:06.947Z,17.32
2019-04-04T09:56:33.741Z,16.90
2019-04-04T09:59:00.606Z,19.40
2019-04-04T10:01:27.690Z,18.55
2019-04-04T10:03:54.436Z,16.35
2019-04-04T10:06:21.201Z,24.63
2019-04-04T10:08:47.967Z,20.97
2019-04-04T10:11:14.780Z,17.50
2019-04-04T10:13:41.655Z,22.32
2019-04-04T10:16:08.411Z,16.15
2019-04-04T10:18:35.564Z,70.80
2019-04-04T10:21:11.853Z,17.37
2019-04-04T10:23:31.773Z,14.05
2019-04-04T10:25:58.824Z,14.65
2019-04-04T10:28:25.602Z,14.45
2019-04-04T10:30:52.412Z,15.78
2019-04-04T10:33:19.162Z,14.25
2019-04-04T10:35:46.068Z,16.32
2019-04-04T10:38:12.891Z,37.08
2019-04-04T10:40:39.718Z,15.75
2019-04-04T10:43:06.678Z,14.38
2019-04-04T10:45:33.560Z,9.68
2019-04-04T10:48:00.315Z,9.00
2019-04-04T10:50:27.509Z,9.13
2019-04-04T10:52:54.460Z,9.45
2019-04-04T10:55:21.382Z,8.03
2019-04-04T10:57:48.171Z,8.55
2019-04-04T11:00:15.246Z,8.70
2019-04-04T11:02:42.363Z,9.83
2019-04-04T11:05:09.978Z,9.40
2019-04-04T11:07:36.726Z,7.97
2019-04-04T11:10:04.599Z,9.33
2019-04-04T11:12:34.124Z,8.78
2019-04-04T11:15:00.358Z,9.00
2019-04-04T11:17:27.296Z,9.45
2019-04-04T11:19:54.731Z,9.05
2019-04-04T11:22:21.600Z,9.10
2019-04-04T11:24:48.366Z,9.25
2019-04-04T11:27:17.484Z,9.65
2019-04-04T11:29:43.976Z,10.03
2019-04-04T11:32:10.866Z,8.78
2019-04-04T11:34:37.636Z,9.48
2019-04-04T11:37:04.470Z,8.75
2019-04-04T11:39:31.449Z,9.25
2019-04-04T11:41:58.282Z,9.20
2019-04-04T11:44:25.094Z,8.35
2019-04-04T11:46:51.893Z,9.25
2019-04-04T11:49:18.872Z,9.33
2019-04-04T11:51:45.601Z,9.13
2019-04-04T11:54:12.355Z,8.95
2019-04-04T11:56:39.242Z,8.90
2019-04-04T11:59:08.171Z,9.15
2019-04-04T12:01:39.342Z,9.17
2019-04-04T12:04:06.070Z,9.38
2019-04-04T12:06:33.022Z,10.43
2019-04-04T12:08:59.856Z,9.90
2019-04-04T12:11:26.740Z,10.18
2019-04-04T12:13:53.499Z,8.40
2019-04-04T12:16:20.348Z,8.43
2019-04-04T12:18:47.169Z,9.85
2019-04-04T12:21:14.007Z,8.43
2019-04-04T12:23:40.795Z,9.25
2019-04-04T12:26:09.183Z,8.75
2019-04-04T12:28:37.253Z,9.05
2019-04-04T12:31:04.197Z,8.68
2019-04-04T12:33:30.971Z,9.23
2019-04-04T12:35:57.759Z,10.28
2019-04-04T12:38:24.772Z,8.98
2019-04-04T12:40:51.537Z,9.73
2019-04-04T12:43:18.254Z,9.30
2019-04-04T12:45:45.047Z,10.30
2019-04-04T12:48:11.883Z,9.53
2019-04-04T12:50:38.652Z,9.58
2019-04-04T12:53:05.416Z,8.95
2019-04-04T12:55:32.379Z,9.33
2019-04-04T12:57:59.280Z,9.18
2019-04-04T13:00:26.131Z,10.15
2019-04-04T13:02:52.863Z,9.58
2019-04-04T13:05:20.127Z,8.90
2019-04-04T13:07:47.060Z,8.88
2019-04-04T13:10:15.014Z,9.65
2019-04-04T13:12:41.823Z,9.80
2019-04-04T13:15:08.845Z,9.80
2019-04-04T13:17:35.714Z,10.13
2019-04-04T13:20:04.425Z,8.98
2019-04-04T13:22:31.389Z,9.67
2019-04-04T13:24:58.231Z,9.38
2019-04-04T13:27:25.021Z,9.35
2019-04-04T13:29:51.852Z,10.72
2019-04-04T13:32:18.777Z,9.95
2019-04-04T13:34:58.358Z,10.13
2019-04-04T13:37:14.303Z,10.20
2019-04-04T13:39:41.124Z,10.03
2019-04-04T13:42:08.087Z,9.68
2019-04-04T13:47:47.903Z,10.15
2019-04-04T13:50:14.843Z,10.72
2019-04-04T13:52:41.935Z,11.50
2019-04-04T13:55:15.398Z,7.90
2019-04-04T13:57:42.443Z,9.23
2019-04-04T14:00:09.692Z,9.23
2019-04-04T14:02:38.336Z,9.23
2019-04-04T14:05:10.011Z,9.85
2019-04-04T14:07:35.917Z,9.83
2019-04-04T14:10:05.566Z,10.38
2019-04-04T14:14:59.045Z,10.13
2019-04-04T14:17:26.163Z,10.20
2019-04-04T14:19:52.945Z,9.98
2019-04-04T14:22:19.774Z,10.28
2019-04-04T14:24:46.989Z,9.18
2019-04-04T14:27:13.738Z,10.78
2019-04-04T14:29:40.618Z,9.50
2019-04-04T14:32:07.447Z,10.20
2019-04-04T14:34:34.399Z,10.05
2019-04-04T14:37:01.127Z,11.80
2019-04-04T14:39:27.972Z,10.38
2019-04-04T14:41:54.811Z,10.82
2019-04-04T14:44:21.718Z,10.48
2019-04-04T14:49:18.457Z,10.78
2019-04-04T14:51:45.218Z,10.82
2019-04-04T14:54:12.008Z,10.20
2019-04-04T14:56:38.932Z,10.65
2019-04-04T14:59:05.713Z,9.90
2019-04-04T15:01:34.930Z,9.43
2019-04-04T15:04:01.109Z,10.18
2019-04-04T15:06:27.913Z,9.70
2019-04-04T15:08:54.635Z,10.38
2019-04-04T15:11:24.474Z,10.55
2019-04-04T15:13:50.186Z,11.10
2019-04-04T15:16:17.068Z,10.20
2019-04-04T15:18:43.897Z,10.65
2019-04-04T15:21:10.762Z,10.43
2019-04-04T15:23:37.557Z,10.13
2019-04-04T15:26:04.358Z,11.15
2019-04-04T15:28:31.194Z,10.45
2019-04-04T15:30:58.025Z,11.25
2019-04-04T15:33:24.801Z,10.38
2019-04-04T15:35:51.729Z,10.85
2019-04-04T15:38:18.652Z,10.90
2019-04-04T15:40:45.437Z,10.48
2019-04-04T15:43:12.233Z,11.03
2019-04-04T15:45:39.317Z,10.50
2019-04-04T15:48:06.284Z,11.80
2019-04-04T15:50:33.107Z,10.98
2019-04-04T15:53:00.209Z,11.90
2019-04-04T15:55:26.999Z,10.78
2019-04-04T15:57:53.781Z,13.28
2019-04-04T16:00:20.560Z,11.15
2019-04-04T16:02:47.553Z,11.75
2019-04-04T16:05:14.324Z,16.35
2019-04-04T16:07:41.065Z,12.28
2019-04-04T16:10:08.155Z,12.55
2019-04-04T16:12:34.963Z,11.43
2019-04-04T16:15:01.860Z,11.30
2019-04-04T16:17:28.599Z,11.40
2019-04-04T16:19:55.452Z,11.70
2019-04-04T16:22:22.211Z,12.43
2019-04-04T16:24:48.962Z,11.38
2019-04-04T16:27:16.299Z,11.95
2019-04-04T16:29:44.276Z,11.93
2019-04-04T16:32:13.039Z,11.73
2019-04-04T16:34:39.785Z,11.90
2019-04-04T16:37:06.661Z,12.82
2019-04-04T16:39:35.496Z,11.63
2019-04-04T16:42:02.796Z,10.83
2019-04-04T16:44:29.797Z,11.78
2019-04-04T16:46:56.593Z,11.78
2019-04-04T16:49:23.399Z,11.08
2019-04-04T16:51:50.201Z,12.80
2019-04-04T16:54:17.054Z,11.08
2019-04-04T16:56:43.927Z,11.73
2019-04-04T16:59:10.620Z,12.45
2019-04-04T17:01:37.420Z,12.55
2019-04-04T17:04:04.205Z,13.00
2019-04-04T17:06:31.180Z,12.03
2019-04-04T17:08:57.968Z,14.50
2019-04-04T17:11:24.713Z,12.78
2019-04-04T17:13:51.582Z,13.28
2019-04-04T17:16:21.178Z,14.10
2019-04-04T17:18:47.140Z,12.68
2019-04-04T17:21:13.906Z,13.43
2019-04-04T17:23:41.079Z,14.23
2019-04-04T17:26:07.886Z,14.15
2019-04-04T17:28:34.637Z,12.73
2019-04-04T17:31:01.493Z,13.60
2019-04-04T17:33:28.741Z,13.45
2019-04-04T17:35:55.839Z,15.10
2019-04-04T17:38:22.633Z,13.28
2019-04-04T17:40:49.427Z,12.90
2019-04-04T17:43:16.208Z,13.85
2019-04-04T17:45:43.026Z,12.80
2019-04-04T17:48:09.832Z,14.43
2019-04-04T17:50:36.822Z,14.05
2019-04-04T17:53:03.610Z,13.48
2019-04-04T17:55:30.389Z,15.18
2019-04-04T17:57:57.966Z,15.00
2019-04-04T18:00:25.700Z,14.53
2019-04-04T18:02:52.568Z,15.55
2019-04-04T18:05:19.502Z,14.43
2019-04-04T18:07:46.477Z,14.18
2019-04-04T18:10:13.443Z,15.08
2019-04-04T18:12:41.000Z,15.80
2019-04-04T18:15:09.065Z,15.48
2019-04-04T18:17:35.934Z,16.37
2019-04-04T18:20:06.448Z,15.13
2019-04-04T18:22:36.032Z,15.83
2019-04-04T18:25:05.024Z,16.50
2019-04-04T18:27:31.944Z,15.88
2019-04-04T18:29:59.104Z,15.58
2019-04-04T18:32:25.928Z,16.32
2019-04-04T18:34:52.744Z,15.78
2019-04-04T18:37:19.702Z,16.57
2019-04-04T18:39:46.527Z,15.23
2019-04-04T18:42:13.401Z,16.45
2019-04-04T18:44:40.595Z,15.85
2019-04-04T18:47:07.329Z,15.40
2019-04-04T18:49:34.253Z,16.48
2019-04-04T18:52:01.008Z,15.93
2019-04-04T18:54:27.990Z,16.05
2019-04-04T18:56:54.756Z,16.10
2019-04-04T18:59:21.590Z,17.77
2019-04-04T19:01:48.722Z,16.23
2019-04-04T19:04:15.502Z,16.37
2019-04-04T19:06:42.326Z,18.40
2019-04-04T19:09:15.228Z,18.15
2019-04-04T19:11:40.038Z,18.07
2019-04-04T19:14:06.791Z,18.40
2019-04-04T19:16:33.561Z,18.52
2019-04-04T19:19:00.341Z,18.20
2019-04-04T19:21:27.170Z,19.35
2019-04-04T19:23:54.096Z,19.48
2019-04-04T19:26:21.033Z,19.27
2019-04-04T19:28:47.752Z,21.23
2019-04-04T19:31:14.733Z,19.52
2019-04-04T19:33:41.653Z,19.77
2019-04-04T19:36:10.041Z,20.10
2019-04-04T19:38:36.842Z,20.17
2019-04-04T19:41:04.056Z,19.85
2019-04-04T19:43:30.767Z,20.55
2019-04-04T19:45:57.577Z,21.33
2019-04-04T19:48:24.664Z,19.85
2019-04-04T19:50:51.994Z,21.48
2019-04-04T19:53:18.757Z,21.07
2019-04-04T19:55:45.550Z,20.92
2019-04-04T19:58:12.450Z,20.60
2019-04-04T20:00:39.250Z,20.68
2019-04-04T20:03:06.002Z,22.90
2019-04-04T20:05:32.862Z,22.25
2019-04-04T20:07:59.720Z,22.05
2019-04-04T20:10:26.480Z,21.55
2019-04-04T20:12:53.647Z,21.90
2019-04-04T20:15:20.690Z,22.10
2019-04-04T20:17:47.469Z,22.55
2019-04-04T20:20:14.369Z,22.20
2019-04-04T20:22:43.602Z,21.25
2019-04-04T20:25:10.375Z,21.97
2019-04-04T20:27:37.464Z,21.50
2019-04-04T20:30:06.297Z,22.73
2019-04-04T20:32:33.026Z,22.65
2019-04-04T20:34:59.929Z,22.32
2019-04-04T20:37:26.726Z,23.80
2019-04-04T20:39:53.625Z,23.87
2019-04-04T20:42:20.402Z,24.37
2019-04-04T20:44:47.228Z,25.05
2019-04-04T20:47:14.017Z,24.95
2019-04-04T20:49:40.747Z,26.10
2019-04-04T20:52:07.514Z,25.95
2019-04-04T20:54:34.454Z,24.98
2019-04-04T20:57:01.222Z,23.55
2019-04-04T20:59:28.343Z,23.92
2019-04-04T21:01:55.696Z,24.43
2019-04-04T21:04:22.481Z,24.70
2019-04-04T21:06:49.377Z,23.80
2019-04-04T21:09:16.190Z,24.50
2019-04-04T21:11:43.148Z,24.45
2019-04-04T21:14:09.937Z,23.52
2019-04-04T21:16:36.769Z,23.47
2019-04-04T21:19:03.604Z,24.43
2019-04-04T21:21:30.343Z,22.80
2019-04-04T21:23:57.241Z,24.27
2019-04-04T21:26:23.991Z,24.15
2019-04-04T21:28:50.799Z,26.00
2019-04-04T21:31:17.610Z,25.10
2019-04-04T21:33:44.380Z,24.00
2019-04-04T21:36:11.160Z,23.92
2019-04-04T21:38:38.024Z,24.18
2019-04-04T21:41:04.751Z,24.07
2019-04-04T21:43:31.928Z,24.70
2019-04-04T21:45:58.677Z,24.43
2019-04-04T21:48:25.445Z,25.95
2019-04-04T21:50:52.258Z,24.50
2019-04-04T21:53:19.099Z,24.75
2019-04-04T21:55:45.841Z,24.52
2019-04-04T21:58:12.700Z,24.12
2019-04-04T22:00:43.409Z,23.05
2019-04-04T22:03:10.248Z,23.73
2019-04-04T22:05:37.288Z,22.77
2019-04-04T22:08:04.142Z,24.72
2019-04-04T22:10:30.924Z,23.50
2019-04-04T22:12:57.689Z,21.97
2019-04-04T22:15:24.649Z,23.20
2019-04-04T22:17:53.033Z,22.95
2019-04-04T22:20:19.748Z,22.30
2019-04-04T22:22:46.557Z,22.32
2019-04-04T22:25:13.827Z,21.05
2019-04-04T22:27:40.578Z,23.80
2019-04-04T22:30:07.344Z,24.60
2019-04-04T22:32:34.644Z,24.05
2019-04-04T22:35:01.464Z,24.35
2019-04-04T22:37:29.573Z,24.27
2019-04-04T22:39:56.469Z,25.17
2019-04-04T22:42:23.524Z,26.00
2019-04-04T22:44:50.312Z,24.20
2019-04-04T22:47:17.054Z,24.18
2019-04-04T22:49:43.778Z,26.00
2019-04-04T22:52:10.652Z,26.35
2019-04-04T22:54:37.435Z,25.52
2019-04-04T22:57:04.181Z,25.50
2019-04-04T22:59:30.956Z,25.20
2019-04-04T23:01:58.675Z,24.90
2019-04-04T23:04:25.496Z,26.10
2019-04-04T23:06:52.679Z,25.85
2019-04-04T23:09:19.595Z,25.48
2019-04-04T23:11:46.365Z,26.50
2019-04-04T23:14:13.181Z,27.98
2019-04-04T23:16:40.028Z,27.80
2019-04-04T23:19:06.790Z,27.98
2019-04-04T23:21:33.563Z,28.38
2019-04-04T23:24:00.515Z,29.57
2019-04-04T23:26:27.294Z,28.57
2019-04-04T23:28:54.060Z,30.00
2019-04-04T23:31:20.787Z,31.05
2019-04-04T23:33:47.649Z,29.98
2019-04-04T23:36:14.440Z,30.70
2019-04-04T23:38:41.181Z,31.73
2019-04-04T23:41:08.520Z,29.95
2019-04-04T23:43:35.384Z,31.93
2019-04-04T23:46:02.179Z,30.95
2019-04-04T23:48:29.059Z,30.40
2019-04-04T23:50:55.825Z,31.20
2019-04-04T23:53:22.611Z,31.97
2019-04-04T23:55:49.408Z,31.75
2019-04-04T23:58:16.122Z,31.20
